sensor_id;sensor_type;location;lat;lon;timestamp;P1;durP1;ratioP1;P2;durP2;ratioP2
72684;SDS011;61365;52.162;4.500;2022-08-21T00:02:26;7.15;;;2.33;;
72684;SDS011;61365;52.162;4.500;2022-08-21T00:04:54;7.15;;;2.67;;
72684;SDS011;61365;52.162;4.500;2022-08-21T00:07:20;7.00;;;1.95;;
72684;SDS011;61365;52.162;4.500;2022-08-21T00:09:47;9.70;;;2.63;;
72684;SDS011;61365;52.162;4.500;2022-08-21T00:12:13;18.15;;;3.33;;
72684;SDS011;61365;52.162;4.500;2022-08-21T00:14:40;10.15;;;2.67;;
72684;SDS011;61365;52.162;4.500;2022-08-21T00:17:07;15.88;;;2.80;;
72684;SDS011;61365;52.162;4.500;2022-08-21T00:19:33;9.98;;;3.13;;
72684;SDS011;61365;52.162;4.500;2022-08-21T00:21:59;9.15;;;2.35;;
72684;SDS011;61365;52.162;4.500;2022-08-21T00:24:26;11.68;;;2.75;;
72684;SDS011;61365;52.162;4.500;2022-08-21T00:26:53;11.68;;;2.65;;
72684;SDS011;61365;52.162;4.500;2022-08-21T00:29:20;7.55;;;2.53;;
72684;SDS011;61365;52.162;4.500;2022-08-21T00:31:46;8.77;;;2.50;;
72684;SDS011;61365;52.162;4.500;2022-08-21T00:34:13;11.65;;;2.72;;
72684;SDS011;61365;52.162;4.500;2022-08-21T00:36:40;12.25;;;3.15;;
72684;SDS011;61365;52.162;4.500;2022-08-21T00:39:07;10.32;;;2.60;;
72684;SDS011;61365;52.162;4.500;2022-08-21T00:41:35;9.60;;;2.35;;
72684;SDS011;61365;52.162;4.500;2022-08-21T00:44:05;13.40;;;2.95;;
72684;SDS011;61365;52.162;4.500;2022-08-21T00:46:36;12.40;;;3.03;;
72684;SDS011;61365;52.162;4.500;2022-08-21T00:49:05;9.80;;;2.80;;
72684;SDS011;61365;52.162;4.500;2022-08-21T00:51:50;12.85;;;3.00;;
72684;SDS011;61365;52.162;4.500;2022-08-21T00:54:22;12.90;;;2.97;;
72684;SDS011;61365;52.162;4.500;2022-08-21T00:56:54;15.25;;;2.83;;
72684;SDS011;61365;52.162;4.500;2022-08-21T00:59:26;8.40;;;2.13;;
72684;SDS011;61365;52.162;4.500;2022-08-21T01:02:00;7.53;;;2.40;;
72684;SDS011;61365;52.162;4.500;2022-08-21T01:04:29;12.48;;;2.92;;
72684;SDS011;61365;52.162;4.500;2022-08-21T01:06:55;8.88;;;2.65;;
72684;SDS011;61365;52.162;4.500;2022-08-21T01:09:22;9.05;;;2.40;;
72684;SDS011;61365;52.162;4.500;2022-08-21T01:11:49;8.43;;;2.50;;
72684;SDS011;61365;52.162;4.500;2022-08-21T01:14:16;12.65;;;2.33;;
72684;SDS011;61365;52.162;4.500;2022-08-21T01:16:45;12.05;;;2.65;;
72684;SDS011;61365;52.162;4.500;2022-08-21T01:19:17;12.32;;;2.38;;
72684;SDS011;61365;52.162;4.500;2022-08-21T01:21:46;10.13;;;2.58;;
72684;SDS011;61365;52.162;4.500;2022-08-21T01:24:12;7.72;;;2.15;;
72684;SDS011;61365;52.162;4.500;2022-08-21T01:26:40;10.45;;;2.58;;
72684;SDS011;61365;52.162;4.500;2022-08-21T01:29:16;8.15;;;2.40;;
72684;SDS011;61365;52.162;4.500;2022-08-21T01:31:52;13.20;;;2.78;;
72684;SDS011;61365;52.162;4.500;2022-08-21T01:34:19;11.77;;;3.05;;
72684;SDS011;61365;52.162;4.500;2022-08-21T01:36:45;9.93;;;2.95;;
72684;SDS011;61365;52.162;4.500;2022-08-21T01:39:13;11.10;;;2.47;;
72684;SDS011;61365;52.162;4.500;2022-08-21T01:41:40;11.07;;;2.92;;
72684;SDS011;61365;52.162;4.500;2022-08-21T01:44:07;11.32;;;3.47;;
72684;SDS011;61365;52.162;4.500;2022-08-21T01:46:33;17.13;;;2.63;;
72684;SDS011;61365;52.162;4.500;2022-08-21T01:49:00;10.55;;;3.03;;
72684;SDS011;61365;52.162;4.500;2022-08-21T01:51:27;9.85;;;2.75;;
72684;SDS011;61365;52.162;4.500;2022-08-21T01:53:53;18.65;;;2.88;;
72684;SDS011;61365;52.162;4.500;2022-08-21T01:56:19;15.02;;;3.25;;
72684;SDS011;61365;52.162;4.500;2022-08-21T01:58:46;11.25;;;2.47;;
72684;SDS011;61365;52.162;4.500;2022-08-21T02:01:13;10.32;;;2.47;;
72684;SDS011;61365;52.162;4.500;2022-08-21T02:03:40;11.07;;;3.05;;
72684;SDS011;61365;52.162;4.500;2022-08-21T02:06:10;9.25;;;3.00;;
72684;SDS011;61365;52.162;4.500;2022-08-21T02:08:40;16.05;;;3.60;;
72684;SDS011;61365;52.162;4.500;2022-08-21T02:11:07;11.23;;;3.05;;
72684;SDS011;61365;52.162;4.500;2022-08-21T02:13:33;11.75;;;2.85;;
72684;SDS011;61365;52.162;4.500;2022-08-21T02:15:59;11.95;;;3.25;;
72684;SDS011;61365;52.162;4.500;2022-08-21T02:18:26;6.45;;;2.30;;
72684;SDS011;61365;52.162;4.500;2022-08-21T02:20:52;18.60;;;3.67;;
72684;SDS011;61365;52.162;4.500;2022-08-21T02:23:19;11.80;;;2.60;;
72684;SDS011;61365;52.162;4.500;2022-08-21T02:25:45;10.73;;;3.17;;
72684;SDS011;61365;52.162;4.500;2022-08-21T02:28:12;9.48;;;2.50;;
72684;SDS011;61365;52.162;4.500;2022-08-21T02:30:41;9.50;;;2.97;;
72684;SDS011;61365;52.162;4.500;2022-08-21T02:33:12;10.23;;;3.05;;
72684;SDS011;61365;52.162;4.500;2022-08-21T02:35:40;12.88;;;2.80;;
72684;SDS011;61365;52.162;4.500;2022-08-21T02:38:11;11.05;;;3.05;;
72684;SDS011;61365;52.162;4.500;2022-08-21T02:40:45;11.75;;;2.80;;
72684;SDS011;61365;52.162;4.500;2022-08-21T02:43:14;8.38;;;2.90;;
72684;SDS011;61365;52.162;4.500;2022-08-21T02:45:42;10.85;;;3.35;;
72684;SDS011;61365;52.162;4.500;2022-08-21T02:48:10;13.27;;;3.17;;
72684;SDS011;61365;52.162;4.500;2022-08-21T02:50:42;7.43;;;2.15;;
72684;SDS011;61365;52.162;4.500;2022-08-21T02:53:14;10.25;;;2.50;;
72684;SDS011;61365;52.162;4.500;2022-08-21T02:55:43;7.80;;;2.70;;
72684;SDS011;61365;52.162;4.500;2022-08-21T02:58:13;12.05;;;2.58;;
72684;SDS011;61365;52.162;4.500;2022-08-21T03:00:43;8.98;;;2.25;;
72684;SDS011;61365;52.162;4.500;2022-08-21T03:03:10;10.60;;;2.50;;
72684;SDS011;61365;52.162;4.500;2022-08-21T03:05:38;10.55;;;2.50;;
72684;SDS011;61365;52.162;4.500;2022-08-21T03:08:05;10.10;;;2.60;;
72684;SDS011;61365;52.162;4.500;2022-08-21T03:10:36;8.63;;;2.80;;
72684;SDS011;61365;52.162;4.500;2022-08-21T03:13:06;11.65;;;2.67;;
72684;SDS011;61365;52.162;4.500;2022-08-21T03:15:33;10.45;;;2.40;;
72684;SDS011;61365;52.162;4.500;2022-08-21T03:18:01;10.00;;;2.50;;
72684;SDS011;61365;52.162;4.500;2022-08-21T03:20:29;10.48;;;2.70;;
72684;SDS011;61365;52.162;4.500;2022-08-21T03:22:58;13.73;;;2.17;;
72684;SDS011;61365;52.162;4.500;2022-08-21T03:25:25;13.40;;;3.15;;
72684;SDS011;61365;52.162;4.500;2022-08-21T03:27:53;6.65;;;1.98;;
72684;SDS011;61365;52.162;4.500;2022-08-21T03:30:20;8.23;;;2.35;;
72684;SDS011;61365;52.162;4.500;2022-08-21T03:32:48;8.18;;;2.15;;
72684;SDS011;61365;52.162;4.500;2022-08-21T03:35:15;11.18;;;2.53;;
72684;SDS011;61365;52.162;4.500;2022-08-21T03:37:41;6.55;;;2.28;;
72684;SDS011;61365;52.162;4.500;2022-08-21T03:40:08;11.70;;;2.58;;
72684;SDS011;61365;52.162;4.500;2022-08-21T03:42:37;12.02;;;2.63;;
72684;SDS011;61365;52.162;4.500;2022-08-21T03:45:05;13.48;;;3.28;;
72684;SDS011;61365;52.162;4.500;2022-08-21T03:47:32;10.77;;;2.70;;
72684;SDS011;61365;52.162;4.500;2022-08-21T03:49:59;14.68;;;3.10;;
72684;SDS011;61365;52.162;4.500;2022-08-21T03:52:25;11.13;;;2.65;;
72684;SDS011;61365;52.162;4.500;2022-08-21T03:54:52;12.43;;;2.85;;
72684;SDS011;61365;52.162;4.500;2022-08-21T03:57:18;10.80;;;2.67;;
72684;SDS011;61365;52.162;4.500;2022-08-21T03:59:45;14.85;;;3.17;;
72684;SDS011;61365;52.162;4.500;2022-08-21T04:02:12;10.77;;;2.97;;
72684;SDS011;61365;52.162;4.500;2022-08-21T04:04:44;13.13;;;3.15;;
72684;SDS011;61365;52.162;4.500;2022-08-21T04:07:11;16.70;;;3.30;;
72684;SDS011;61365;52.162;4.500;2022-08-21T04:09:37;13.73;;;3.55;;
72684;SDS011;61365;52.162;4.500;2022-08-21T04:12:04;9.38;;;3.13;;
72684;SDS011;61365;52.162;4.500;2022-08-21T04:14:31;11.55;;;3.10;;
72684;SDS011;61365;52.162;4.500;2022-08-21T04:16:57;15.35;;;3.53;;
72684;SDS011;61365;52.162;4.500;2022-08-21T04:19:24;8.30;;;2.80;;
72684;SDS011;61365;52.162;4.500;2022-08-21T04:21:50;19.58;;;3.95;;
72684;SDS011;61365;52.162;4.500;2022-08-21T04:24:16;17.00;;;3.40;;
72684;SDS011;61365;52.162;4.500;2022-08-21T04:26:42;14.52;;;3.72;;
72684;SDS011;61365;52.162;4.500;2022-08-21T04:29:09;11.38;;;3.38;;
72684;SDS011;61365;52.162;4.500;2022-08-21T04:31:35;15.93;;;4.05;;
72684;SDS011;61365;52.162;4.500;2022-08-21T04:34:03;12.90;;;3.55;;
72684;SDS011;61365;52.162;4.500;2022-08-21T04:36:31;14.25;;;4.15;;
72684;SDS011;61365;52.162;4.500;2022-08-21T04:38:58;8.20;;;3.58;;
72684;SDS011;61365;52.162;4.500;2022-08-21T04:41:25;12.20;;;3.97;;
72684;SDS011;61365;52.162;4.500;2022-08-21T04:43:51;18.42;;;4.72;;
72684;SDS011;61365;52.162;4.500;2022-08-21T04:46:18;23.33;;;5.18;;
72684;SDS011;61365;52.162;4.500;2022-08-21T04:48:44;15.75;;;5.35;;
72684;SDS011;61365;52.162;4.500;2022-08-21T04:53:52;19.25;;;6.05;;
72684;SDS011;61365;52.162;4.500;2022-08-21T04:56:25;18.15;;;6.88;;
72684;SDS011;61365;52.162;4.500;2022-08-21T04:58:58;18.90;;;6.25;;
72684;SDS011;61365;52.162;4.500;2022-08-21T05:01:34;13.73;;;5.50;;
72684;SDS011;61365;52.162;4.500;2022-08-21T05:04:04;15.82;;;6.10;;
72684;SDS011;61365;52.162;4.500;2022-08-21T05:06:36;16.30;;;6.88;;
72684;SDS011;61365;52.162;4.500;2022-08-21T05:09:09;21.83;;;6.43;;
72684;SDS011;61365;52.162;4.500;2022-08-21T05:11:44;15.75;;;6.07;;
72684;SDS011;61365;52.162;4.500;2022-08-21T05:14:11;15.55;;;6.32;;
72684;SDS011;61365;52.162;4.500;2022-08-21T05:16:38;14.82;;;6.40;;
72684;SDS011;61365;52.162;4.500;2022-08-21T05:19:05;18.35;;;6.30;;
72684;SDS011;61365;52.162;4.500;2022-08-21T05:21:33;19.08;;;6.50;;
72684;SDS011;61365;52.162;4.500;2022-08-21T05:24:02;18.25;;;5.85;;
72684;SDS011;61365;52.162;4.500;2022-08-21T05:26:29;15.82;;;5.72;;
72684;SDS011;61365;52.162;4.500;2022-08-21T05:28:55;14.43;;;5.38;;
72684;SDS011;61365;52.162;4.500;2022-08-21T05:31:22;13.63;;;4.82;;
72684;SDS011;61365;52.162;4.500;2022-08-21T05:33:49;13.90;;;4.93;;
72684;SDS011;61365;52.162;4.500;2022-08-21T05:36:16;19.48;;;6.15;;
72684;SDS011;61365;52.162;4.500;2022-08-21T05:38:44;13.52;;;5.00;;
72684;SDS011;61365;52.162;4.500;2022-08-21T05:41:11;12.85;;;5.00;;
72684;SDS011;61365;52.162;4.500;2022-08-21T05:43:38;14.68;;;4.82;;
72684;SDS011;61365;52.162;4.500;2022-08-21T05:46:05;12.50;;;4.82;;
72684;SDS011;61365;52.162;4.500;2022-08-21T05:48:33;13.85;;;4.60;;
72684;SDS011;61365;52.162;4.500;2022-08-21T05:51:13;13.88;;;4.47;;
72684;SDS011;61365;52.162;4.500;2022-08-21T05:53:41;13.55;;;3.90;;
72684;SDS011;61365;52.162;4.500;2022-08-21T05:56:10;13.52;;;3.53;;
72684;SDS011;61365;52.162;4.500;2022-08-21T05:58:38;14.43;;;4.50;;
72684;SDS011;61365;52.162;4.500;2022-08-21T06:01:05;11.77;;;4.07;;
72684;SDS011;61365;52.162;4.500;2022-08-21T06:03:33;15.30;;;4.20;;
72684;SDS011;61365;52.162;4.500;2022-08-21T06:06:02;16.13;;;4.32;;
72684;SDS011;61365;52.162;4.500;2022-08-21T06:08:29;13.00;;;4.03;;
72684;SDS011;61365;52.162;4.500;2022-08-21T06:10:56;12.82;;;3.80;;
72684;SDS011;61365;52.162;4.500;2022-08-21T06:13:25;8.05;;;3.28;;
72684;SDS011;61365;52.162;4.500;2022-08-21T06:18:35;10.45;;;3.80;;
72684;SDS011;61365;52.162;4.500;2022-08-21T06:21:03;15.57;;;4.00;;
72684;SDS011;61365;52.162;4.500;2022-08-21T06:23:30;13.60;;;4.10;;
72684;SDS011;61365;52.162;4.500;2022-08-21T06:25:56;14.30;;;3.80;;
72684;SDS011;61365;52.162;4.500;2022-08-21T06:28:23;9.75;;;3.00;;
72684;SDS011;61365;52.162;4.500;2022-08-21T06:30:50;11.60;;;3.40;;
72684;SDS011;61365;52.162;4.500;2022-08-21T06:33:16;8.45;;;2.78;;
72684;SDS011;61365;52.162;4.500;2022-08-21T06:35:43;9.43;;;3.30;;
72684;SDS011;61365;52.162;4.500;2022-08-21T06:38:09;11.55;;;3.20;;
72684;SDS011;61365;52.162;4.500;2022-08-21T06:40:35;13.18;;;3.65;;
72684;SDS011;61365;52.162;4.500;2022-08-21T06:43:07;10.77;;;3.40;;
72684;SDS011;61365;52.162;4.500;2022-08-21T06:45:39;12.88;;;3.40;;
72684;SDS011;61365;52.162;4.500;2022-08-21T06:48:06;12.70;;;3.35;;
72684;SDS011;61365;52.162;4.500;2022-08-21T06:50:35;13.60;;;3.60;;
72684;SDS011;61365;52.162;4.500;2022-08-21T06:53:06;11.75;;;3.30;;
72684;SDS011;61365;52.162;4.500;2022-08-21T06:55:37;9.35;;;2.97;;
72684;SDS011;61365;52.162;4.500;2022-08-21T06:58:05;9.40;;;2.92;;
72684;SDS011;61365;52.162;4.500;2022-08-21T07:00:32;11.70;;;3.33;;
72684;SDS011;61365;52.162;4.500;2022-08-21T07:03:01;13.90;;;3.50;;
72684;SDS011;61365;52.162;4.500;2022-08-21T07:05:28;11.48;;;3.10;;
72684;SDS011;61365;52.162;4.500;2022-08-21T07:07:56;9.88;;;2.33;;
72684;SDS011;61365;52.162;4.500;2022-08-21T07:10:24;13.48;;;3.20;;
72684;SDS011;61365;52.162;4.500;2022-08-21T07:12:53;12.77;;;3.30;;
72684;SDS011;61365;52.162;4.500;2022-08-21T07:15:20;11.90;;;2.88;;
72684;SDS011;61365;52.162;4.500;2022-08-21T07:17:47;8.65;;;2.38;;
72684;SDS011;61365;52.162;4.500;2022-08-21T07:20:13;7.72;;;2.67;;
72684;SDS011;61365;52.162;4.500;2022-08-21T07:22:39;13.18;;;3.72;;
72684;SDS011;61365;52.162;4.500;2022-08-21T07:25:07;13.13;;;3.72;;
72684;SDS011;61365;52.162;4.500;2022-08-21T07:27:34;8.45;;;2.60;;
72684;SDS011;61365;52.162;4.500;2022-08-21T07:30:04;10.23;;;2.22;;
72684;SDS011;61365;52.162;4.500;2022-08-21T07:32:37;13.10;;;3.13;;
72684;SDS011;61365;52.162;4.500;2022-08-21T07:35:03;9.57;;;2.65;;
72684;SDS011;61365;52.162;4.500;2022-08-21T07:37:30;8.88;;;2.78;;
72684;SDS011;61365;52.162;4.500;2022-08-21T07:39:56;6.97;;;2.22;;
72684;SDS011;61365;52.162;4.500;2022-08-21T07:42:22;10.63;;;2.58;;
72684;SDS011;61365;52.162;4.500;2022-08-21T07:44:49;9.88;;;2.10;;
72684;SDS011;61365;52.162;4.500;2022-08-21T07:47:15;13.50;;;2.85;;
72684;SDS011;61365;52.162;4.500;2022-08-21T07:49:42;10.27;;;2.50;;
72684;SDS011;61365;52.162;4.500;2022-08-21T07:52:08;13.88;;;3.67;;
72684;SDS011;61365;52.162;4.500;2022-08-21T07:54:34;14.77;;;2.90;;
72684;SDS011;61365;52.162;4.500;2022-08-21T07:57:01;9.27;;;2.47;;
72684;SDS011;61365;52.162;4.500;2022-08-21T07:59:31;14.05;;;3.10;;
72684;SDS011;61365;52.162;4.500;2022-08-21T08:01:57;10.52;;;2.88;;
72684;SDS011;61365;52.162;4.500;2022-08-21T08:04:24;13.40;;;3.03;;
72684;SDS011;61365;52.162;4.500;2022-08-21T08:06:51;10.43;;;2.45;;
72684;SDS011;61365;52.162;4.500;2022-08-21T08:09:17;6.70;;;2.40;;
72684;SDS011;61365;52.162;4.500;2022-08-21T08:11:44;12.63;;;2.63;;
72684;SDS011;61365;52.162;4.500;2022-08-21T08:14:10;12.93;;;3.00;;
72684;SDS011;61365;52.162;4.500;2022-08-21T08:16:37;12.40;;;2.33;;
72684;SDS011;61365;52.162;4.500;2022-08-21T08:19:03;13.95;;;2.63;;
72684;SDS011;61365;52.162;4.500;2022-08-21T08:21:30;9.07;;;2.50;;
72684;SDS011;61365;52.162;4.500;2022-08-21T08:23:58;10.80;;;2.30;;
72684;SDS011;61365;52.162;4.500;2022-08-21T08:26:24;10.38;;;2.67;;
72684;SDS011;61365;52.162;4.500;2022-08-21T08:28:50;13.35;;;2.67;;
72684;SDS011;61365;52.162;4.500;2022-08-21T08:31:17;8.15;;;2.45;;
72684;SDS011;61365;52.162;4.500;2022-08-21T08:33:43;13.02;;;2.58;;
72684;SDS011;61365;52.162;4.500;2022-08-21T08:36:13;12.27;;;2.50;;
72684;SDS011;61365;52.162;4.500;2022-08-21T08:38:43;12.95;;;2.85;;
72684;SDS011;61365;52.162;4.500;2022-08-21T08:43:54;14.32;;;2.63;;
72684;SDS011;61365;52.162;4.500;2022-08-21T08:46:48;9.93;;;2.38;;
72684;SDS011;61365;52.162;4.500;2022-08-21T08:57:35;13.48;;;2.47;;
72684;SDS011;61365;52.162;4.500;2022-08-21T09:00:11;9.93;;;2.50;;
72684;SDS011;61365;52.162;4.500;2022-08-21T09:02:41;11.80;;;2.72;;
72684;SDS011;61365;52.162;4.500;2022-08-21T09:05:15;8.85;;;2.17;;
72684;SDS011;61365;52.162;4.500;2022-08-21T09:13:43;5.45;;;1.42;;
72684;SDS011;61365;52.162;4.500;2022-08-21T09:22:07;8.60;;;1.92;;
72684;SDS011;61365;52.162;4.500;2022-08-21T09:27:56;8.02;;;1.67;;
72684;SDS011;61365;52.162;4.500;2022-08-21T09:30:31;5.55;;;1.33;;
72684;SDS011;61365;52.162;4.500;2022-08-21T09:32:58;5.82;;;1.30;;
72684;SDS011;61365;52.162;4.500;2022-08-21T09:35:25;6.75;;;1.35;;
72684;SDS011;61365;52.162;4.500;2022-08-21T09:45:40;4.60;;;1.20;;
72684;SDS011;61365;52.162;4.500;2022-08-21T09:48:09;6.72;;;1.48;;
72684;SDS011;61365;52.162;4.500;2022-08-21T09:50:48;5.57;;;1.45;;
72684;SDS011;61365;52.162;4.500;2022-08-21T09:53:18;8.27;;;1.42;;
72684;SDS011;61365;52.162;4.500;2022-08-21T09:56:01;7.75;;;1.50;;
72684;SDS011;61365;52.162;4.500;2022-08-21T09:58:50;4.68;;;1.40;;
72684;SDS011;61365;52.162;4.500;2022-08-21T10:01:21;7.15;;;1.30;;
72684;SDS011;61365;52.162;4.500;2022-08-21T10:04:09;7.05;;;1.52;;
72684;SDS011;61365;52.162;4.500;2022-08-21T10:06:36;6.90;;;1.67;;
72684;SDS011;61365;52.162;4.500;2022-08-21T10:09:05;8.82;;;1.50;;
72684;SDS011;61365;52.162;4.500;2022-08-21T10:11:43;5.72;;;1.10;;
72684;SDS011;61365;52.162;4.500;2022-08-21T10:17:18;5.82;;;1.70;;
72684;SDS011;61365;52.162;4.500;2022-08-21T10:20:27;6.22;;;1.52;;
72684;SDS011;61365;52.162;4.500;2022-08-21T10:29:17;5.63;;;1.33;;
72684;SDS011;61365;52.162;4.500;2022-08-21T10:32:30;5.20;;;1.20;;
72684;SDS011;61365;52.162;4.500;2022-08-21T10:41:10;5.30;;;1.70;;
72684;SDS011;61365;52.162;4.500;2022-08-21T10:47:18;6.68;;;1.45;;
72684;SDS011;61365;52.162;4.500;2022-08-21T10:56:09;8.02;;;1.73;;
72684;SDS011;61365;52.162;4.500;2022-08-21T10:58:45;6.63;;;1.60;;
72684;SDS011;61365;52.162;4.500;2022-08-21T11:04:25;5.20;;;1.35;;
72684;SDS011;61365;52.162;4.500;2022-08-21T11:07:19;5.55;;;1.20;;
72684;SDS011;61365;52.162;4.500;2022-08-21T11:10:21;6.15;;;1.40;;
72684;SDS011;61365;52.162;4.500;2022-08-21T11:13:03;6.13;;;1.58;;
72684;SDS011;61365;52.162;4.500;2022-08-21T11:15:56;7.65;;;2.05;;
72684;SDS011;61365;52.162;4.500;2022-08-21T11:18:53;6.25;;;1.40;;
72684;SDS011;61365;52.162;4.500;2022-08-21T11:21:48;8.73;;;1.75;;
72684;SDS011;61365;52.162;4.500;2022-08-21T11:27:09;6.60;;;1.52;;
72684;SDS011;61365;52.162;4.500;2022-08-21T11:30:16;5.65;;;1.65;;
72684;SDS011;61365;52.162;4.500;2022-08-21T11:35:46;5.60;;;1.50;;
72684;SDS011;61365;52.162;4.500;2022-08-21T11:41:14;6.45;;;1.77;;
72684;SDS011;61365;52.162;4.500;2022-08-21T11:43:52;5.70;;;1.58;;
72684;SDS011;61365;52.162;4.500;2022-08-21T11:46:57;6.40;;;1.45;;
72684;SDS011;61365;52.162;4.500;2022-08-21T11:52:59;6.28;;;1.85;;
72684;SDS011;61365;52.162;4.500;2022-08-21T11:56:00;7.18;;;1.58;;
72684;SDS011;61365;52.162;4.500;2022-08-21T12:01:13;12.43;;;1.52;;
72684;SDS011;61365;52.162;4.500;2022-08-21T12:04:06;9.73;;;1.90;;
72684;SDS011;61365;52.162;4.500;2022-08-21T12:06:42;8.25;;;1.63;;
72684;SDS011;61365;52.162;4.500;2022-08-21T12:09:55;5.72;;;1.60;;
72684;SDS011;61365;52.162;4.500;2022-08-21T12:12:10;6.90;;;1.67;;
72684;SDS011;61365;52.162;4.500;2022-08-21T12:14:49;8.05;;;1.65;;
72684;SDS011;61365;52.162;4.500;2022-08-21T12:17:35;4.90;;;1.50;;
72684;SDS011;61365;52.162;4.500;2022-08-21T12:22:52;7.07;;;1.52;;
72684;SDS011;61365;52.162;4.500;2022-08-21T12:25:38;7.30;;;1.45;;
72684;SDS011;61365;52.162;4.500;2022-08-21T12:28:09;13.18;;;2.00;;
72684;SDS011;61365;52.162;4.500;2022-08-21T12:30:42;6.25;;;1.60;;
72684;SDS011;61365;52.162;4.500;2022-08-21T12:33:26;6.68;;;1.45;;
72684;SDS011;61365;52.162;4.500;2022-08-21T12:36:05;5.00;;;1.43;;
72684;SDS011;61365;52.162;4.500;2022-08-21T12:41:30;7.80;;;1.45;;
72684;SDS011;61365;52.162;4.500;2022-08-21T12:44:14;7.03;;;1.38;;
72684;SDS011;61365;52.162;4.500;2022-08-21T12:46:51;6.60;;;1.30;;
72684;SDS011;61365;52.162;4.500;2022-08-21T12:49:31;7.03;;;1.65;;
72684;SDS011;61365;52.162;4.500;2022-08-21T12:52:39;10.20;;;1.73;;
72684;SDS011;61365;52.162;4.500;2022-08-21T12:55:01;6.15;;;1.58;;
72684;SDS011;61365;52.162;4.500;2022-08-21T12:57:29;9.52;;;1.60;;
72684;SDS011;61365;52.162;4.500;2022-08-21T12:59:57;10.77;;;1.90;;
72684;SDS011;61365;52.162;4.500;2022-08-21T13:02:31;8.13;;;1.92;;
72684;SDS011;61365;52.162;4.500;2022-08-21T13:05:05;9.38;;;1.52;;
72684;SDS011;61365;52.162;4.500;2022-08-21T13:07:38;4.82;;;1.40;;
72684;SDS011;61365;52.162;4.500;2022-08-21T13:10:20;7.25;;;1.92;;
72684;SDS011;61365;52.162;4.500;2022-08-21T13:12:49;7.68;;;1.45;;
72684;SDS011;61365;52.162;4.500;2022-08-21T13:15:22;9.27;;;1.70;;
72684;SDS011;61365;52.162;4.500;2022-08-21T13:17:55;5.45;;;1.42;;
72684;SDS011;61365;52.162;4.500;2022-08-21T13:20:31;8.15;;;1.23;;
72684;SDS011;61365;52.162;4.500;2022-08-21T13:23:25;7.03;;;1.55;;
72684;SDS011;61365;52.162;4.500;2022-08-21T13:25:55;9.93;;;1.45;;
72684;SDS011;61365;52.162;4.500;2022-08-21T13:28:23;8.25;;;1.70;;
72684;SDS011;61365;52.162;4.500;2022-08-21T13:30:59;5.22;;;1.20;;
72684;SDS011;61365;52.162;4.500;2022-08-21T13:33:27;7.70;;;1.63;;
72684;SDS011;61365;52.162;4.500;2022-08-21T13:38:32;6.07;;;1.10;;
72684;SDS011;61365;52.162;4.500;2022-08-21T13:41:08;8.40;;;2.05;;
72684;SDS011;61365;52.162;4.500;2022-08-21T13:43:44;9.77;;;1.92;;
72684;SDS011;61365;52.162;4.500;2022-08-21T13:46:22;7.05;;;1.60;;
72684;SDS011;61365;52.162;4.500;2022-08-21T13:48:55;10.35;;;1.52;;
72684;SDS011;61365;52.162;4.500;2022-08-21T13:51:24;5.05;;;1.48;;
72684;SDS011;61365;52.162;4.500;2022-08-21T13:53:51;11.02;;;2.00;;
72684;SDS011;61365;52.162;4.500;2022-08-21T13:56:40;7.55;;;1.63;;
72684;SDS011;61365;52.162;4.500;2022-08-21T13:59:11;9.80;;;1.80;;
72684;SDS011;61365;52.162;4.500;2022-08-21T14:01:51;16.67;;;2.13;;
72684;SDS011;61365;52.162;4.500;2022-08-21T14:04:35;6.90;;;1.77;;
72684;SDS011;61365;52.162;4.500;2022-08-21T14:07:16;11.43;;;1.60;;
72684;SDS011;61365;52.162;4.500;2022-08-21T14:09:59;6.53;;;1.50;;
72684;SDS011;61365;52.162;4.500;2022-08-21T14:12:45;7.55;;;1.55;;
72684;SDS011;61365;52.162;4.500;2022-08-21T14:15:17;8.05;;;1.40;;
72684;SDS011;61365;52.162;4.500;2022-08-21T14:17:51;6.57;;;1.30;;
72684;SDS011;61365;52.162;4.500;2022-08-21T14:20:26;6.35;;;1.38;;
72684;SDS011;61365;52.162;4.500;2022-08-21T14:22:59;6.72;;;2.00;;
72684;SDS011;61365;52.162;4.500;2022-08-21T14:25:28;9.30;;;2.00;;
72684;SDS011;61365;52.162;4.500;2022-08-21T14:30:41;6.22;;;1.55;;
72684;SDS011;61365;52.162;4.500;2022-08-21T14:33:10;6.57;;;1.70;;
72684;SDS011;61365;52.162;4.500;2022-08-21T14:35:44;8.95;;;1.90;;
72684;SDS011;61365;52.162;4.500;2022-08-21T14:38:17;7.38;;;1.63;;
72684;SDS011;61365;52.162;4.500;2022-08-21T14:40:51;7.90;;;2.38;;
72684;SDS011;61365;52.162;4.500;2022-08-21T14:43:25;6.70;;;1.67;;
72684;SDS011;61365;52.162;4.500;2022-08-21T14:45:53;8.70;;;2.13;;
72684;SDS011;61365;52.162;4.500;2022-08-21T14:48:21;7.07;;;1.80;;
72684;SDS011;61365;52.162;4.500;2022-08-21T14:50:48;9.07;;;1.70;;
72684;SDS011;61365;52.162;4.500;2022-08-21T14:53:14;6.72;;;1.73;;
72684;SDS011;61365;52.162;4.500;2022-08-21T14:55:41;8.93;;;2.17;;
72684;SDS011;61365;52.162;4.500;2022-08-21T14:58:26;9.48;;;2.03;;
72684;SDS011;61365;52.162;4.500;2022-08-21T15:00:53;9.27;;;2.03;;
72684;SDS011;61365;52.162;4.500;2022-08-21T15:03:21;9.43;;;2.10;;
72684;SDS011;61365;52.162;4.500;2022-08-21T15:05:48;16.40;;;2.20;;
72684;SDS011;61365;52.162;4.500;2022-08-21T15:08:15;13.30;;;2.42;;
72684;SDS011;61365;52.162;4.500;2022-08-21T15:10:43;7.32;;;1.88;;
72684;SDS011;61365;52.162;4.500;2022-08-21T15:13:10;7.80;;;1.80;;
72684;SDS011;61365;52.162;4.500;2022-08-21T15:15:44;7.30;;;2.00;;
72684;SDS011;61365;52.162;4.500;2022-08-21T15:18:13;10.88;;;1.80;;
72684;SDS011;61365;52.162;4.500;2022-08-21T15:20:40;7.53;;;1.80;;
72684;SDS011;61365;52.162;4.500;2022-08-21T15:23:06;9.10;;;2.10;;
72684;SDS011;61365;52.162;4.500;2022-08-21T15:25:34;8.27;;;1.83;;
72684;SDS011;61365;52.162;4.500;2022-08-21T15:28:02;11.05;;;1.73;;
72684;SDS011;61365;52.162;4.500;2022-08-21T15:30:29;9.55;;;1.88;;
72684;SDS011;61365;52.162;4.500;2022-08-21T15:32:57;8.05;;;1.83;;
72684;SDS011;61365;52.162;4.500;2022-08-21T15:35:24;8.55;;;2.05;;
72684;SDS011;61365;52.162;4.500;2022-08-21T15:37:50;7.47;;;1.45;;
72684;SDS011;61365;52.162;4.500;2022-08-21T15:40:16;7.78;;;1.88;;
72684;SDS011;61365;52.162;4.500;2022-08-21T15:42:43;7.65;;;1.77;;
72684;SDS011;61365;52.162;4.500;2022-08-21T15:45:10;7.30;;;1.98;;
72684;SDS011;61365;52.162;4.500;2022-08-21T15:47:37;8.00;;;2.08;;
72684;SDS011;61365;52.162;4.500;2022-08-21T15:50:08;9.27;;;2.50;;
72684;SDS011;61365;52.162;4.500;2022-08-21T15:52:36;8.20;;;1.95;;
72684;SDS011;61365;52.162;4.500;2022-08-21T15:55:06;7.53;;;1.90;;
72684;SDS011;61365;52.162;4.500;2022-08-21T15:57:34;11.80;;;2.45;;
72684;SDS011;61365;52.162;4.500;2022-08-21T16:00:12;10.75;;;1.85;;
72684;SDS011;61365;52.162;4.500;2022-08-21T16:02:50;8.68;;;2.28;;
72684;SDS011;61365;52.162;4.500;2022-08-21T16:05:21;8.15;;;2.20;;
72684;SDS011;61365;52.162;4.500;2022-08-21T16:07:48;8.20;;;2.05;;
72684;SDS011;61365;52.162;4.500;2022-08-21T16:10:17;11.57;;;2.15;;
72684;SDS011;61365;52.162;4.500;2022-08-21T16:12:52;8.93;;;2.08;;
72684;SDS011;61365;52.162;4.500;2022-08-21T16:15:25;11.63;;;2.00;;
72684;SDS011;61365;52.162;4.500;2022-08-21T16:17:52;12.63;;;2.40;;
72684;SDS011;61365;52.162;4.500;2022-08-21T16:20:25;12.57;;;2.05;;
72684;SDS011;61365;52.162;4.500;2022-08-21T16:22:54;10.55;;;2.35;;
72684;SDS011;61365;52.162;4.500;2022-08-21T16:25:23;6.28;;;1.45;;
72684;SDS011;61365;52.162;4.500;2022-08-21T16:27:51;7.88;;;1.88;;
72684;SDS011;61365;52.162;4.500;2022-08-21T16:30:23;9.57;;;1.67;;
72684;SDS011;61365;52.162;4.500;2022-08-21T16:32:51;7.15;;;1.52;;
72684;SDS011;61365;52.162;4.500;2022-08-21T16:35:19;8.10;;;1.60;;
72684;SDS011;61365;52.162;4.500;2022-08-21T16:37:47;9.20;;;1.77;;